TUN weather

Tunis Carthage International Airport
Tunis, Tunis Governorate, Tunisia

Public forecast

Using degrees Celsius for public forecast. Weather courtesy of forecast.io.

METAR (pilot weather report)

Retrieved 2018/11/16 03:30 UTC (0 seconds ago):

DTTA 160330Z 21001KT 8000 FEW023 13/12 Q1017 NOSIG

TAF (pilot weather forecast)

Forecast is more than 12 hours old.

Retrieved 2018/11/15 12:03 UTC (15 hours ago):

TAF TAF COR DTTA 151140Z 1512/1612 2 05KT 9999 FEW026 PROB30 TEMPO 1519/1521 5000 -SHRA BKN026 BECMG 1522/1524 VRB03KT PROB40 TEMPO 1605/1607 4000 BR